createdAt,value
2022-11-05T00:01:08.529Z,6.18
2022-11-05T00:04:09.098Z,6.16
2022-11-05T00:07:12.764Z,6.11
2022-11-05T00:09:57.842Z,6.08
2022-11-05T00:12:57.830Z,6.05
2022-11-05T00:15:56.593Z,6.02
2022-11-05T00:18:36.438Z,5.98
2022-11-05T00:22:18.003Z,5.94
2022-11-05T00:25:42.826Z,5.89
2022-11-05T00:28:22.606Z,5.87
2022-11-05T00:31:05.133Z,5.86
2022-11-05T00:33:45.441Z,5.83
2022-11-05T00:36:26.846Z,5.82
2022-11-05T00:39:08.663Z,5.82
2022-11-05T00:42:16.991Z,5.81
2022-11-05T00:45:03.075Z,5.78
2022-11-05T00:48:03.067Z,5.80
2022-11-05T00:50:44.039Z,5.79
2022-11-05T00:53:24.818Z,5.74
2022-11-05T00:56:05.479Z,5.76
2022-11-05T00:58:49.050Z,5.72
2022-11-05T01:01:29.721Z,5.69
2022-11-05T01:04:11.049Z,5.71
2022-11-05T01:06:51.037Z,5.72
2022-11-05T01:09:34.378Z,5.72
2022-11-05T01:12:15.295Z,5.73
2022-11-05T01:14:55.077Z,5.70
2022-11-05T01:17:34.900Z,5.73
2022-11-05T01:20:14.998Z,5.73
2022-11-05T01:22:56.101Z,5.70
2022-11-05T01:25:35.985Z,5.66
2022-11-05T01:28:17.418Z,5.65
2022-11-05T01:30:58.754Z,5.67
2022-11-05T01:33:40.583Z,5.64
2022-11-05T01:36:21.581Z,5.65
2022-11-05T01:39:01.878Z,5.66
2022-11-05T01:41:54.621Z,5.68
2022-11-05T01:44:50.835Z,5.68
2022-11-05T01:47:47.339Z,5.65
2022-11-05T01:50:30.153Z,5.65
2022-11-05T01:53:12.492Z,5.64
2022-11-05T01:55:58.731Z,5.65
2022-11-05T01:58:43.795Z,5.63
2022-11-05T02:01:24.506Z,5.63
2022-11-05T02:04:06.398Z,5.63
2022-11-05T02:06:46.857Z,5.61
2022-11-05T02:09:27.692Z,5.60
2022-11-05T02:12:08.841Z,5.62
2022-11-05T02:14:49.846Z,5.61
2022-11-05T02:17:34.407Z,5.61
2022-11-05T02:20:23.057Z,5.60
2022-11-05T02:23:11.697Z,5.60
2022-11-05T02:26:03.024Z,5.60
2022-11-05T02:28:50.413Z,5.62
2022-11-05T02:31:30.959Z,5.59
2022-11-05T02:34:12.936Z,5.58
2022-11-05T02:37:06.254Z,5.57
2022-11-05T02:39:48.335Z,5.57
2022-11-05T02:42:31.756Z,5.55
2022-11-05T02:45:11.706Z,5.55
2022-11-05T02:47:56.098Z,5.53
2022-11-05T02:50:38.311Z,5.53
2022-11-05T02:53:23.966Z,5.50
2022-11-05T02:56:06.614Z,5.47
2022-11-05T02:59:01.109Z,5.46
2022-11-05T03:01:42.214Z,5.45
2022-11-05T03:04:23.813Z,5.43
2022-11-05T03:07:17.490Z,5.42
2022-11-05T03:10:16.673Z,5.41
2022-11-05T03:13:01.418Z,5.40
2022-11-05T03:15:45.030Z,5.37
2022-11-05T03:18:27.978Z,5.35
2022-11-05T03:21:21.529Z,5.33
2022-11-05T03:24:03.782Z,5.33
2022-11-05T03:26:44.576Z,5.32
2022-11-05T03:29:28.244Z,5.29
2022-11-05T03:32:12.401Z,5.27
2022-11-05T03:34:57.787Z,5.24
2022-11-05T03:37:41.726Z,5.24
2022-11-05T03:40:22.626Z,5.23
2022-11-05T03:43:04.187Z,5.22
2022-11-05T03:45:45.842Z,5.21
2022-11-05T03:48:26.587Z,5.21
2022-11-05T03:51:09.774Z,5.20
2022-11-05T03:53:51.228Z,5.19
2022-11-05T03:56:35.670Z,5.18
2022-11-05T03:59:16.847Z,5.17
2022-11-05T04:01:56.875Z,5.15
2022-11-05T04:04:38.212Z,5.18
2022-11-05T04:07:36.972Z,5.15
2022-11-05T04:10:34.872Z,5.14
2022-11-05T04:13:24.950Z,5.13
2022-11-05T04:16:28.183Z,5.12
2022-11-05T04:19:09.083Z,5.13
2022-11-05T04:22:06.542Z,5.11
2022-11-05T04:24:47.895Z,5.12
2022-11-05T04:27:27.705Z,5.12
2022-11-05T04:30:20.224Z,5.11
2022-11-05T04:33:00.822Z,5.10
2022-11-05T04:35:42.464Z,5.09
2022-11-05T04:38:22.904Z,5.07
2022-11-05T04:41:14.305Z,5.04
2022-11-05T04:43:57.327Z,5.05
2022-11-05T04:46:40.318Z,5.04
2022-11-05T04:49:21.312Z,5.02
2022-11-05T04:52:04.214Z,5.03
2022-11-05T04:54:44.179Z,5.02
2022-11-05T04:57:23.968Z,4.98
2022-11-05T05:00:01.881Z,4.97
2022-11-05T05:02:41.993Z,4.99
2022-11-05T05:05:31.708Z,4.98
2022-11-05T05:08:13.750Z,4.96
2022-11-05T05:10:56.769Z,4.95
2022-11-05T05:13:37.759Z,4.95
2022-11-05T05:16:20.199Z,4.93
2022-11-05T05:19:00.659Z,4.93
2022-11-05T05:21:42.280Z,4.92
2022-11-05T05:24:25.553Z,4.90
2022-11-05T05:27:06.515Z,4.85
2022-11-05T05:29:47.819Z,4.83
2022-11-05T05:32:26.862Z,4.81
2022-11-05T05:35:26.733Z,4.79
2022-11-05T05:38:08.066Z,4.76
2022-11-05T05:40:49.991Z,4.75
2022-11-05T05:43:33.021Z,4.74
2022-11-05T05:46:14.606Z,4.74
2022-11-05T05:48:55.278Z,4.72
2022-11-05T05:51:35.097Z,4.71
2022-11-05T05:54:17.292Z,4.70
2022-11-05T05:56:57.939Z,4.67
2022-11-05T05:59:37.731Z,4.66
2022-11-05T06:02:17.605Z,4.66
2022-11-05T06:04:58.940Z,4.63
2022-11-05T06:07:38.743Z,4.65
2022-11-05T06:10:22.702Z,4.62
2022-11-05T06:13:01.421Z,4.60
2022-11-05T06:15:41.411Z,4.61
2022-11-05T06:18:24.786Z,4.61
2022-11-05T06:21:06.275Z,4.57
2022-11-05T06:23:48.313Z,4.58
2022-11-05T06:26:28.567Z,4.56
2022-11-05T06:29:10.756Z,4.52
2022-11-05T06:31:51.520Z,4.54
2022-11-05T06:34:32.854Z,4.53
2022-11-05T06:37:16.283Z,4.55
2022-11-05T06:39:57.432Z,4.53
2022-11-05T06:42:38.689Z,4.55
2022-11-05T06:45:20.392Z,4.54
2022-11-05T06:48:03.505Z,4.58
2022-11-05T06:50:45.967Z,4.60
2022-11-05T06:53:25.897Z,4.62
2022-11-05T06:56:08.300Z,4.61
2022-11-05T06:58:48.723Z,4.68
2022-11-05T07:01:28.561Z,4.70
2022-11-05T07:04:10.028Z,4.75
2022-11-05T07:06:53.398Z,4.73
2022-11-05T07:09:32.387Z,4.76
2022-11-05T07:12:12.668Z,4.79
2022-11-05T07:14:54.286Z,4.81
2022-11-05T07:17:35.333Z,4.83
2022-11-05T07:20:15.185Z,4.83
2022-11-05T07:23:03.268Z,4.87
2022-11-05T07:25:44.406Z,4.85
2022-11-05T07:28:22.295Z,4.95
2022-11-05T07:31:00.485Z,4.95
2022-11-05T07:33:42.614Z,5.02
2022-11-05T07:36:23.584Z,5.06
2022-11-05T07:39:19.738Z,5.13
2022-11-05T07:42:02.888Z,5.19
2022-11-05T07:44:57.098Z,5.28
2022-11-05T07:47:38.895Z,5.32
2022-11-05T07:50:20.147Z,5.40
2022-11-05T07:53:02.079Z,5.45
2022-11-05T07:55:42.705Z,5.54
2022-11-05T07:58:24.915Z,5.61
2022-11-05T08:01:07.103Z,5.66
2022-11-05T08:03:48.366Z,5.70
2022-11-05T08:06:32.221Z,5.73
2022-11-05T08:09:14.831Z,5.78
2022-11-05T08:12:02.652Z,5.86
2022-11-05T08:14:43.650Z,5.94
2022-11-05T08:17:46.190Z,6.02
2022-11-05T08:20:27.085Z,6.07
2022-11-05T08:23:09.387Z,6.17
2022-11-05T08:25:49.919Z,6.23
2022-11-05T08:28:32.742Z,6.33
2022-11-05T08:31:14.322Z,6.41
2022-11-05T08:34:02.290Z,6.47
2022-11-05T08:36:46.365Z,6.51
2022-11-05T08:39:26.585Z,6.58
2022-11-05T08:42:06.458Z,6.65
2022-11-05T08:44:47.767Z,6.69
2022-11-05T08:47:30.653Z,6.75
2022-11-05T08:50:12.615Z,6.78
2022-11-05T08:52:53.640Z,6.85
2022-11-05T08:55:31.571Z,6.97
2022-11-05T08:58:17.580Z,7.07
2022-11-05T09:01:28.334Z,7.14
2022-11-05T09:04:09.761Z,7.23
2022-11-05T09:06:51.293Z,7.30
2022-11-05T09:09:32.711Z,7.42
2022-11-05T09:12:13.950Z,7.48
2022-11-05T09:15:07.644Z,7.55
2022-11-05T09:17:49.450Z,7.63
2022-11-05T09:20:29.931Z,7.70
2022-11-05T09:23:11.972Z,7.77
2022-11-05T09:25:52.670Z,7.81
2022-11-05T09:28:53.657Z,7.91
2022-11-05T09:31:34.653Z,7.99
2022-11-05T09:34:14.565Z,8.07
2022-11-05T09:36:58.812Z,8.14
2022-11-05T09:39:38.916Z,8.26
2022-11-05T09:42:20.735Z,8.34
2022-11-05T09:45:02.367Z,8.40
2022-11-05T09:47:47.012Z,8.50
2022-11-05T09:50:31.931Z,8.59
2022-11-05T09:53:12.811Z,8.69
2022-11-05T09:55:54.839Z,8.77
2022-11-05T09:58:37.389Z,8.84
2022-11-05T10:01:25.820Z,8.95
2022-11-05T10:04:08.337Z,9.06
2022-11-05T10:06:50.082Z,9.18
2022-11-05T10:09:31.231Z,9.25
2022-11-05T10:12:18.206Z,9.35
2022-11-05T10:14:59.893Z,9.47
2022-11-05T10:17:42.842Z,9.66
2022-11-05T10:20:25.719Z,9.79
2022-11-05T10:23:10.388Z,9.99
2022-11-05T10:25:52.646Z,10.19
2022-11-05T10:28:34.707Z,10.42
2022-11-05T10:31:17.645Z,10.65
2022-11-05T10:34:00.938Z,10.85
2022-11-05T10:36:44.298Z,11.07
2022-11-05T10:39:27.604Z,11.19
2022-11-05T10:42:23.941Z,11.36
2022-11-05T10:45:05.742Z,11.53
2022-11-05T10:47:49.908Z,11.65
2022-11-05T10:50:30.381Z,11.91
2022-11-05T10:53:13.420Z,12.18
2022-11-05T10:55:54.976Z,12.20
2022-11-05T10:58:42.029Z,12.36
2022-11-05T11:01:22.015Z,12.52
2022-11-05T11:04:23.676Z,12.74
2022-11-05T11:07:06.832Z,12.88
2022-11-05T11:09:49.506Z,12.95
2022-11-05T11:12:36.844Z,13.02
2022-11-05T11:15:27.602Z,13.13
2022-11-05T11:18:35.975Z,13.00
2022-11-05T11:21:23.022Z,13.13
2022-11-05T11:24:02.896Z,13.37
2022-11-05T11:26:43.428Z,13.55
2022-11-05T11:29:24.169Z,13.74
2022-11-05T11:32:04.653Z,13.80
2022-11-05T11:34:46.733Z,13.67
2022-11-05T11:37:27.985Z,13.85
2022-11-05T11:40:13.826Z,14.03
2022-11-05T11:42:55.945Z,14.02
2022-11-05T11:45:37.597Z,14.04
2022-11-05T11:48:19.756Z,13.95
2022-11-05T11:51:00.840Z,14.01
2022-11-05T11:53:40.719Z,13.95
2022-11-05T11:56:20.441Z,13.69
2022-11-05T11:59:02.414Z,13.86
2022-11-05T12:01:56.298Z,14.01
2022-11-05T12:04:44.345Z,14.19
2022-11-05T12:07:31.905Z,14.33
2022-11-05T12:10:17.520Z,14.34
2022-11-05T12:13:02.033Z,14.47
2022-11-05T12:15:44.890Z,14.65
2022-11-05T12:18:29.161Z,14.75
2022-11-05T12:21:13.537Z,14.88
2022-11-05T12:23:58.285Z,14.60
2022-11-05T12:26:43.383Z,14.60
2022-11-05T12:29:35.538Z,14.70
2022-11-05T12:32:23.534Z,14.75
2022-11-05T12:35:06.538Z,14.78
2022-11-05T12:37:49.789Z,14.94
2022-11-05T12:40:51.883Z,14.97
2022-11-05T12:43:35.869Z,14.96
2022-11-05T12:46:19.581Z,14.98
2022-11-05T12:49:57.550Z,14.88
2022-11-05T12:52:50.046Z,15.17
2022-11-05T12:55:29.939Z,15.24
2022-11-05T12:58:11.429Z,15.37
2022-11-05T13:00:53.556Z,15.51
2022-11-05T13:03:33.907Z,15.36
2022-11-05T13:07:01.873Z,15.26
2022-11-05T13:09:44.613Z,15.21
2022-11-05T13:12:25.793Z,15.20
2022-11-05T13:15:20.141Z,15.19
2022-11-05T13:18:02.373Z,15.47
2022-11-05T13:21:03.409Z,15.45
2022-11-05T13:23:44.833Z,15.29
2022-11-05T13:26:25.632Z,14.95
2022-11-05T13:29:06.755Z,14.63
2022-11-05T13:31:46.666Z,14.21
2022-11-05T13:34:33.456Z,14.12
2022-11-05T13:37:34.406Z,13.97
2022-11-05T13:40:18.011Z,13.68
2022-11-05T13:43:02.752Z,13.71
2022-11-05T13:45:56.767Z,13.65
2022-11-05T13:48:48.831Z,13.23
2022-11-05T13:51:41.389Z,13.23
2022-11-05T13:54:40.186Z,13.07
2022-11-05T13:57:23.944Z,12.98
2022-11-05T14:00:06.483Z,12.67
2022-11-05T14:03:01.751Z,12.45
2022-11-05T14:05:42.495Z,12.39
2022-11-05T14:08:24.630Z,12.41
2022-11-05T14:11:06.544Z,12.33
2022-11-05T14:13:46.789Z,12.06
2022-11-05T14:16:40.921Z,11.99
2022-11-05T14:19:35.265Z,11.87
2022-11-05T14:22:37.612Z,11.84
2022-11-05T14:25:35.980Z,11.70
2022-11-05T14:28:33.584Z,11.62
2022-11-05T14:31:41.103Z,11.60
2022-11-05T14:34:41.354Z,11.37
2022-11-05T14:37:25.302Z,11.26
2022-11-05T14:40:19.599Z,11.20
2022-11-05T14:43:17.785Z,11.20
2022-11-05T14:45:58.361Z,11.08
2022-11-05T14:48:40.357Z,11.04
2022-11-05T14:51:21.735Z,10.99
2022-11-05T14:54:03.889Z,10.87
2022-11-05T14:56:54.980Z,10.82
2022-11-05T14:59:50.559Z,10.75
2022-11-05T15:02:34.910Z,10.62
2022-11-05T15:05:34.343Z,10.68
2022-11-05T15:08:32.784Z,10.55
2022-11-05T15:11:14.520Z,10.50
2022-11-05T15:13:59.033Z,10.39
2022-11-05T15:16:43.429Z,10.41
2022-11-05T15:19:24.714Z,10.41
2022-11-05T15:22:06.405Z,10.38
2022-11-05T15:24:46.546Z,10.35
2022-11-05T15:27:33.100Z,10.31
2022-11-05T15:30:19.528Z,10.24
2022-11-05T15:33:10.615Z,10.17
2022-11-05T15:35:53.454Z,10.15
2022-11-05T15:38:35.047Z,10.07
2022-11-05T15:41:17.209Z,10.01
2022-11-05T15:43:57.147Z,10.00
2022-11-05T15:46:36.917Z,9.95
2022-11-05T15:49:16.749Z,9.93
2022-11-05T15:51:57.095Z,9.89
2022-11-05T15:54:38.320Z,9.88
2022-11-05T15:57:23.403Z,9.80
2022-11-05T16:00:07.861Z,9.75
2022-11-05T16:02:55.331Z,9.71
2022-11-05T16:05:35.054Z,9.73
2022-11-05T16:08:19.421Z,9.66
2022-11-05T16:10:59.753Z,9.61
2022-11-05T16:13:40.894Z,9.51
2022-11-05T16:16:25.715Z,9.52
2022-11-05T16:19:20.251Z,9.47
2022-11-05T16:22:02.194Z,9.39
2022-11-05T16:24:42.337Z,9.37
2022-11-05T16:27:23.613Z,9.35
2022-11-05T16:30:03.624Z,9.31
2022-11-05T16:32:44.858Z,9.33
2022-11-05T16:35:25.218Z,9.28
2022-11-05T16:38:06.334Z,9.29
2022-11-05T16:40:47.489Z,9.25
2022-11-05T16:43:27.446Z,9.20
2022-11-05T16:46:11.366Z,9.19
2022-11-05T16:48:53.669Z,9.18
2022-11-05T16:51:34.711Z,9.15
2022-11-05T16:54:14.480Z,9.11
2022-11-05T16:56:54.310Z,9.08
2022-11-05T16:59:45.945Z,9.07
2022-11-05T17:02:26.870Z,9.03
2022-11-05T17:05:08.458Z,9.02
2022-11-05T17:07:48.693Z,9.04
2022-11-05T17:10:29.956Z,9.03
2022-11-05T17:13:12.612Z,9.05
2022-11-05T17:15:52.750Z,9.02
2022-11-05T17:18:34.212Z,9.01
2022-11-05T17:21:15.624Z,8.98
2022-11-05T17:23:56.975Z,9.02
2022-11-05T17:26:38.792Z,8.95
2022-11-05T17:29:21.842Z,8.97
2022-11-05T17:32:02.746Z,8.97
2022-11-05T17:34:44.259Z,8.97
2022-11-05T17:37:27.618Z,8.96
2022-11-05T17:40:09.699Z,8.97
2022-11-05T17:42:50.082Z,8.96
2022-11-05T17:45:31.544Z,8.91
2022-11-05T17:48:13.079Z,8.91
2022-11-05T17:50:54.289Z,8.88
2022-11-05T17:53:37.657Z,8.89
2022-11-05T17:56:32.110Z,8.88
2022-11-05T17:59:12.621Z,8.89
2022-11-05T18:01:54.422Z,8.82
2022-11-05T18:04:35.675Z,8.79
2022-11-05T18:07:17.684Z,8.81
2022-11-05T18:09:58.656Z,8.80
2022-11-05T18:12:40.050Z,8.78
2022-11-05T18:15:23.288Z,8.82
2022-11-05T18:18:06.373Z,8.79
2022-11-05T18:20:47.353Z,8.75
2022-11-05T18:23:30.791Z,8.76
2022-11-05T18:26:12.018Z,8.77
2022-11-05T18:28:53.103Z,8.75
2022-11-05T18:31:30.996Z,8.71
2022-11-05T18:34:11.293Z,8.74
2022-11-05T18:36:56.590Z,8.76
2022-11-05T18:39:37.157Z,8.67
2022-11-05T18:42:16.928Z,8.70
2022-11-05T18:44:56.723Z,8.69
2022-11-05T18:47:34.907Z,8.67
2022-11-05T18:50:15.503Z,8.65
2022-11-05T18:52:56.194Z,8.67
2022-11-05T18:55:35.991Z,8.68
2022-11-05T18:58:15.826Z,8.69
2022-11-05T19:00:55.683Z,8.68
2022-11-05T19:03:54.401Z,8.67
2022-11-05T19:06:35.619Z,8.68
2022-11-05T19:09:58.575Z,8.63
2022-11-05T19:12:39.458Z,8.62
2022-11-05T19:15:19.974Z,8.58
2022-11-05T19:18:01.197Z,8.59
2022-11-05T19:20:41.041Z,8.60
2022-11-05T19:23:20.846Z,8.58
2022-11-05T19:26:15.476Z,8.54
2022-11-05T19:28:55.417Z,8.54
2022-11-05T19:31:35.284Z,8.53
2022-11-05T19:34:19.029Z,8.52
2022-11-05T19:36:59.590Z,8.54
2022-11-05T19:39:40.417Z,8.51
2022-11-05T19:42:20.873Z,8.53
2022-11-05T19:45:23.147Z,8.54
2022-11-05T19:48:01.261Z,8.53
2022-11-05T19:50:42.728Z,8.53
2022-11-05T19:53:24.069Z,8.56
2022-11-05T19:56:06.732Z,8.53
2022-11-05T19:59:00.565Z,8.53
2022-11-05T20:01:41.749Z,8.54
2022-11-05T20:04:21.250Z,8.58
2022-11-05T20:07:01.292Z,8.58
2022-11-05T20:09:43.131Z,8.54
2022-11-05T20:12:24.050Z,8.56
2022-11-05T20:15:04.667Z,8.54
2022-11-05T20:17:43.426Z,8.54
2022-11-05T20:20:23.674Z,8.57
2022-11-05T20:23:28.093Z,8.56
2022-11-05T20:26:08.739Z,8.60
2022-11-05T20:28:49.612Z,8.61
2022-11-05T20:31:30.154Z,8.58
2022-11-05T20:34:11.399Z,8.61
2022-11-05T20:36:49.284Z,8.62
2022-11-05T20:39:29.382Z,8.65
2022-11-05T20:42:10.855Z,8.65
2022-11-05T20:44:54.194Z,8.68
2022-11-05T20:47:35.289Z,8.69
2022-11-05T20:50:16.707Z,8.70
2022-11-05T20:52:58.234Z,8.66
2022-11-05T20:55:43.277Z,8.70
2022-11-05T20:58:23.053Z,8.68
2022-11-05T21:01:04.456Z,8.67
2022-11-05T21:03:43.529Z,8.68
2022-11-05T21:06:26.615Z,8.67
2022-11-05T21:09:08.487Z,8.65
2022-11-05T21:12:07.046Z,8.68
2022-11-05T21:14:48.970Z,8.68
2022-11-05T21:17:31.887Z,8.65
2022-11-05T21:20:13.146Z,8.63
2022-11-05T21:22:52.415Z,8.64
2022-11-05T21:25:35.170Z,8.66
2022-11-05T21:28:14.794Z,8.61
2022-11-05T21:30:55.358Z,8.63
2022-11-05T21:33:36.795Z,8.61
2022-11-05T21:36:18.299Z,8.59
2022-11-05T21:38:59.498Z,8.58
2022-11-05T21:41:39.062Z,8.58
2022-11-05T21:44:19.256Z,8.58
2022-11-05T21:47:04.382Z,8.59
2022-11-05T21:49:45.243Z,8.58
2022-11-05T21:52:44.335Z,8.57
2022-11-05T21:55:43.151Z,8.55
2022-11-05T21:58:42.514Z,8.59
2022-11-05T22:01:23.674Z,8.56
2022-11-05T22:04:05.117Z,8.52
2022-11-05T22:06:48.428Z,8.48
2022-11-05T22:09:29.664Z,8.42
2022-11-05T22:12:10.964Z,8.41
2022-11-05T22:14:52.315Z,8.42
2022-11-05T22:17:33.677Z,8.36
2022-11-05T22:20:15.089Z,8.37
2022-11-05T22:22:55.511Z,8.33
2022-11-05T22:25:36.247Z,8.29
2022-11-05T22:28:16.117Z,8.28
2022-11-05T22:30:57.597Z,8.21
2022-11-05T22:33:38.863Z,8.16
2022-11-05T22:36:18.765Z,8.12
2022-11-05T22:39:00.124Z,8.12
2022-11-05T22:41:38.051Z,8.07
2022-11-05T22:44:18.186Z,8.05
2022-11-05T22:46:57.601Z,8.05
2022-11-05T22:49:37.770Z,7.99
2022-11-05T22:52:19.150Z,7.95
2022-11-05T22:54:59.143Z,7.94
2022-11-05T22:57:38.451Z,7.88
2022-11-05T23:00:19.004Z,7.89
2022-11-05T23:02:59.143Z,7.86
2022-11-05T23:05:39.956Z,7.89
2022-11-05T23:08:38.713Z,7.89
2022-11-05T23:11:38.325Z,7.90
2022-11-05T23:14:19.157Z,7.94
2022-11-05T23:17:18.401Z,7.97
2022-11-05T23:20:31.698Z,8.00
2022-11-05T23:23:30.823Z,8.03
2022-11-05T23:26:27.067Z,8.04
2022-11-05T23:29:07.818Z,8.05
2022-11-05T23:32:05.262Z,8.06
2022-11-05T23:34:46.675Z,8.09
2022-11-05T23:37:44.301Z,8.08
2022-11-05T23:40:24.094Z,8.10
2022-11-05T23:43:23.771Z,8.09
2022-11-05T23:46:22.279Z,8.10
2022-11-05T23:49:08.317Z,8.10
2022-11-05T23:51:49.493Z,8.09
2022-11-05T23:54:31.121Z,8.09
2022-11-05T23:57:12.355Z,8.12
2022-11-05T23:59:52.088Z,8.14
